sensor_id;sensor_type;location;lat;lon;timestamp;P1;durP1;ratioP1;P2;durP2;ratioP2
75508;SDS011;64214;47.250;11.332;2023-02-07T00:00:07;11.15;;;7.95;;
75508;SDS011;64214;47.250;11.332;2023-02-07T00:00:23;11.32;;;7.80;;
75508;SDS011;64214;47.250;11.332;2023-02-07T00:00:34;11.88;;;7.60;;
75508;SDS011;64214;47.250;11.332;2023-02-07T00:00:45;12.35;;;7.93;;
75508;SDS011;64214;47.250;11.332;2023-02-07T00:00:56;11.48;;;7.90;;
75508;SDS011;64214;47.250;11.332;2023-02-07T00:01:12;11.30;;;7.75;;
75508;SDS011;64214;47.250;11.332;2023-02-07T00:01:24;12.40;;;7.90;;
75508;SDS011;64214;47.250;11.332;2023-02-07T00:01:35;12.65;;;8.00;;
75508;SDS011;64214;47.250;11.332;2023-02-07T00:01:46;11.88;;;7.93;;
75508;SDS011;64214;47.250;11.332;2023-02-07T00:01:57;12.95;;;8.18;;
75508;SDS011;64214;47.250;11.332;2023-02-07T00:02:09;13.23;;;8.00;;
75508;SDS011;64214;47.250;11.332;2023-02-07T00:02:20;12.27;;;7.70;;
75508;SDS011;64214;47.250;11.332;2023-02-07T00:02:31;11.75;;;7.53;;
75508;SDS011;64214;47.250;11.332;2023-02-07T00:02:43;11.60;;;7.55;;
75508;SDS011;64214;47.250;11.332;2023-02-07T00:02:55;12.20;;;7.72;;
75508;SDS011;64214;47.250;11.332;2023-02-07T00:03:07;12.05;;;7.53;;
75508;SDS011;64214;47.250;11.332;2023-02-07T00:03:18;12.40;;;7.80;;
75508;SDS011;64214;47.250;11.332;2023-02-07T00:03:29;12.25;;;7.70;;
75508;SDS011;64214;47.250;11.332;2023-02-07T00:03:40;12.27;;;7.78;;
75508;SDS011;64214;47.250;11.332;2023-02-07T00:03:51;12.38;;;7.53;;
75508;SDS011;64214;47.250;11.332;2023-02-07T00:04:04;12.10;;;7.95;;
75508;SDS011;64214;47.250;11.332;2023-02-07T00:04:16;12.23;;;8.02;;
75508;SDS011;64214;47.250;11.332;2023-02-07T00:04:27;11.02;;;7.63;;
75508;SDS011;64214;47.250;11.332;2023-02-07T00:04:38;11.02;;;7.13;;
75508;SDS011;64214;47.250;11.332;2023-02-07T00:04:49;11.23;;;7.30;;
75508;SDS011;64214;47.250;11.332;2023-02-07T00:05:01;11.75;;;7.45;;
75508;SDS011;64214;47.250;11.332;2023-02-07T00:05:12;11.80;;;7.60;;
75508;SDS011;64214;47.250;11.332;2023-02-07T00:05:24;11.52;;;7.47;;
75508;SDS011;64214;47.250;11.332;2023-02-07T00:05:35;11.55;;;7.45;;
75508;SDS011;64214;47.250;11.332;2023-02-07T00:05:46;11.55;;;7.53;;
75508;SDS011;64214;47.250;11.332;2023-02-07T00:06:07;12.38;;;7.70;;
75508;SDS011;64214;47.250;11.332;2023-02-07T00:06:21;12.50;;;7.53;;
75508;SDS011;64214;47.250;11.332;2023-02-07T00:06:37;12.32;;;7.50;;
75508;SDS011;64214;47.250;11.332;2023-02-07T00:06:48;12.45;;;7.85;;
75508;SDS011;64214;47.250;11.332;2023-02-07T00:06:59;12.38;;;7.85;;
75508;SDS011;64214;47.250;11.332;2023-02-07T00:07:11;12.35;;;8.05;;
75508;SDS011;64214;47.250;11.332;2023-02-07T00:07:22;12.20;;;7.90;;
75508;SDS011;64214;47.250;11.332;2023-02-07T00:07:33;11.13;;;7.70;;
75508;SDS011;64214;47.250;11.332;2023-02-07T00:07:44;11.43;;;7.78;;
75508;SDS011;64214;47.250;11.332;2023-02-07T00:07:56;11.83;;;7.97;;
75508;SDS011;64214;47.250;11.332;2023-02-07T00:08:07;11.93;;;8.47;;
75508;SDS011;64214;47.250;11.332;2023-02-07T00:08:18;12.00;;;8.43;;
75508;SDS011;64214;47.250;11.332;2023-02-07T00:08:29;11.63;;;7.95;;
75508;SDS011;64214;47.250;11.332;2023-02-07T00:08:41;12.02;;;8.07;;
75508;SDS011;64214;47.250;11.332;2023-02-07T00:08:52;11.48;;;7.97;;
75508;SDS011;64214;47.250;11.332;2023-02-07T00:09:05;11.52;;;8.07;;
75508;SDS011;64214;47.250;11.332;2023-02-07T00:09:17;10.93;;;7.32;;
75508;SDS011;64214;47.250;11.332;2023-02-07T00:09:28;11.30;;;7.63;;
75508;SDS011;64214;47.250;11.332;2023-02-07T00:09:39;11.57;;;7.93;;
75508;SDS011;64214;47.250;11.332;2023-02-07T00:09:50;11.43;;;8.10;;
75508;SDS011;64214;47.250;11.332;2023-02-07T00:10:01;11.90;;;7.55;;
75508;SDS011;64214;47.250;11.332;2023-02-07T00:10:13;11.73;;;8.02;;
75508;SDS011;64214;47.250;11.332;2023-02-07T00:10:24;11.25;;;8.07;;
75508;SDS011;64214;47.250;11.332;2023-02-07T00:10:35;12.35;;;8.27;;
75508;SDS011;64214;47.250;11.332;2023-02-07T00:10:46;11.73;;;7.80;;
75508;SDS011;64214;47.250;11.332;2023-02-07T00:11:02;11.50;;;7.40;;
75508;SDS011;64214;47.250;11.332;2023-02-07T00:11:15;10.95;;;7.53;;
75508;SDS011;64214;47.250;11.332;2023-02-07T00:11:27;12.63;;;7.80;;
75508;SDS011;64214;47.250;11.332;2023-02-07T00:11:38;12.25;;;7.68;;
75508;SDS011;64214;47.250;11.332;2023-02-07T00:11:51;12.40;;;7.82;;
75508;SDS011;64214;47.250;11.332;2023-02-07T00:12:02;12.35;;;8.07;;
75508;SDS011;64214;47.250;11.332;2023-02-07T00:12:14;12.70;;;8.15;;
75508;SDS011;64214;47.250;11.332;2023-02-07T00:12:25;12.80;;;8.15;;
75508;SDS011;64214;47.250;11.332;2023-02-07T00:12:36;11.20;;;7.90;;
75508;SDS011;64214;47.250;11.332;2023-02-07T00:12:47;11.98;;;7.60;;
75508;SDS011;64214;47.250;11.332;2023-02-07T00:12:59;12.07;;;7.88;;
75508;SDS011;64214;47.250;11.332;2023-02-07T00:13:10;12.93;;;8.05;;
75508;SDS011;64214;47.250;11.332;2023-02-07T00:13:22;11.68;;;7.93;;
75508;SDS011;64214;47.250;11.332;2023-02-07T00:13:33;11.48;;;8.18;;
75508;SDS011;64214;47.250;11.332;2023-02-07T00:13:45;10.80;;;8.20;;
75508;SDS011;64214;47.250;11.332;2023-02-07T00:13:58;17.25;;;8.30;;
75508;SDS011;64214;47.250;11.332;2023-02-07T00:14:10;20.48;;;8.52;;
75508;SDS011;64214;47.250;11.332;2023-02-07T00:14:22;21.20;;;8.57;;
75508;SDS011;64214;47.250;11.332;2023-02-07T00:14:33;14.68;;;8.52;;
75508;SDS011;64214;47.250;11.332;2023-02-07T00:14:45;13.30;;;8.15;;
75508;SDS011;64214;47.250;11.332;2023-02-07T00:14:57;12.02;;;7.90;;
75508;SDS011;64214;47.250;11.332;2023-02-07T00:15:08;11.50;;;7.97;;
75508;SDS011;64214;47.250;11.332;2023-02-07T00:15:20;11.27;;;7.95;;
75508;SDS011;64214;47.250;11.332;2023-02-07T00:15:31;11.18;;;7.65;;
75508;SDS011;64214;47.250;11.332;2023-02-07T00:15:42;11.05;;;7.40;;
75508;SDS011;64214;47.250;11.332;2023-02-07T00:15:53;11.10;;;7.35;;
75508;SDS011;64214;47.250;11.332;2023-02-07T00:16:05;12.32;;;7.60;;
75508;SDS011;64214;47.250;11.332;2023-02-07T00:16:16;13.48;;;7.78;;
75508;SDS011;64214;47.250;11.332;2023-02-07T00:16:28;14.45;;;8.45;;
75508;SDS011;64214;47.250;11.332;2023-02-07T00:16:40;13.00;;;8.07;;
75508;SDS011;64214;47.250;11.332;2023-02-07T00:16:51;12.00;;;7.45;;
75508;SDS011;64214;47.250;11.332;2023-02-07T00:17:02;11.75;;;7.45;;
75508;SDS011;64214;47.250;11.332;2023-02-07T00:17:14;12.18;;;7.63;;
75508;SDS011;64214;47.250;11.332;2023-02-07T00:17:27;12.60;;;7.90;;
75508;SDS011;64214;47.250;11.332;2023-02-07T00:17:38;12.68;;;8.05;;
75508;SDS011;64214;47.250;11.332;2023-02-07T00:17:49;12.05;;;8.00;;
75508;SDS011;64214;47.250;11.332;2023-02-07T00:18:00;12.45;;;8.20;;
75508;SDS011;64214;47.250;11.332;2023-02-07T00:18:11;11.60;;;7.90;;
75508;SDS011;64214;47.250;11.332;2023-02-07T00:18:22;11.30;;;7.70;;
75508;SDS011;64214;47.250;11.332;2023-02-07T00:18:34;12.23;;;8.13;;
75508;SDS011;64214;47.250;11.332;2023-02-07T00:18:46;12.38;;;7.93;;
75508;SDS011;64214;47.250;11.332;2023-02-07T00:18:57;11.23;;;7.38;;
75508;SDS011;64214;47.250;11.332;2023-02-07T00:19:09;10.05;;;7.30;;
75508;SDS011;64214;47.250;11.332;2023-02-07T00:19:20;12.00;;;8.07;;
75508;SDS011;64214;47.250;11.332;2023-02-07T00:19:31;14.07;;;8.60;;
75508;SDS011;64214;47.250;11.332;2023-02-07T00:19:42;15.77;;;8.45;;
75508;SDS011;64214;47.250;11.332;2023-02-07T00:19:53;14.60;;;7.60;;
75508;SDS011;64214;47.250;11.332;2023-02-07T00:20:05;12.98;;;7.57;;
75508;SDS011;64214;47.250;11.332;2023-02-07T00:20:16;11.88;;;7.30;;
75508;SDS011;64214;47.250;11.332;2023-02-07T00:20:29;11.57;;;7.28;;
75508;SDS011;64214;47.250;11.332;2023-02-07T00:20:40;10.63;;;7.10;;
75508;SDS011;64214;47.250;11.332;2023-02-07T00:20:58;10.75;;;7.22;;
75508;SDS011;64214;47.250;11.332;2023-02-07T00:21:11;11.85;;;7.63;;
75508;SDS011;64214;47.250;11.332;2023-02-07T00:21:24;12.20;;;7.82;;
75508;SDS011;64214;47.250;11.332;2023-02-07T00:21:35;11.50;;;7.68;;
75508;SDS011;64214;47.250;11.332;2023-02-07T00:21:47;11.10;;;7.05;;
75508;SDS011;64214;47.250;11.332;2023-02-07T00:21:58;11.50;;;7.03;;
75508;SDS011;64214;47.250;11.332;2023-02-07T00:22:09;11.75;;;7.53;;
75508;SDS011;64214;47.250;11.332;2023-02-07T00:22:20;12.45;;;7.72;;
75508;SDS011;64214;47.250;11.332;2023-02-07T00:22:31;12.48;;;7.70;;
75508;SDS011;64214;47.250;11.332;2023-02-07T00:22:43;12.73;;;8.13;;
75508;SDS011;64214;47.250;11.332;2023-02-07T00:22:55;11.25;;;8.13;;
75508;SDS011;64214;47.250;11.332;2023-02-07T00:23:06;10.40;;;7.95;;
75508;SDS011;64214;47.250;11.332;2023-02-07T00:23:17;9.55;;;7.68;;
75508;SDS011;64214;47.250;11.332;2023-02-07T00:23:28;10.55;;;8.02;;
75508;SDS011;64214;47.250;11.332;2023-02-07T00:23:40;11.82;;;8.27;;
75508;SDS011;64214;47.250;11.332;2023-02-07T00:23:52;13.02;;;8.48;;
75508;SDS011;64214;47.250;11.332;2023-02-07T00:24:03;12.75;;;8.48;;
75508;SDS011;64214;47.250;11.332;2023-02-07T00:24:14;11.90;;;8.02;;
75508;SDS011;64214;47.250;11.332;2023-02-07T00:24:26;11.57;;;7.63;;
75508;SDS011;64214;47.250;11.332;2023-02-07T00:24:37;11.60;;;7.80;;
75508;SDS011;64214;47.250;11.332;2023-02-07T00:24:48;11.95;;;8.30;;
75508;SDS011;64214;47.250;11.332;2023-02-07T00:24:59;11.68;;;8.55;;
75508;SDS011;64214;47.250;11.332;2023-02-07T00:25:10;11.23;;;8.23;;
75508;SDS011;64214;47.250;11.332;2023-02-07T00:25:22;10.82;;;7.95;;
75508;SDS011;64214;47.250;11.332;2023-02-07T00:25:33;10.17;;;7.70;;
75508;SDS011;64214;47.250;11.332;2023-02-07T00:25:44;11.02;;;8.02;;
75508;SDS011;64214;47.250;11.332;2023-02-07T00:25:55;11.45;;;8.02;;
75508;SDS011;64214;47.250;11.332;2023-02-07T00:26:07;11.27;;;7.80;;
75508;SDS011;64214;47.250;11.332;2023-02-07T00:26:19;10.48;;;7.32;;
75508;SDS011;64214;47.250;11.332;2023-02-07T00:26:32;11.50;;;7.73;;
75508;SDS011;64214;47.250;11.332;2023-02-07T00:26:43;12.23;;;7.93;;
75508;SDS011;64214;47.250;11.332;2023-02-07T00:26:56;12.40;;;8.07;;
75508;SDS011;64214;47.250;11.332;2023-02-07T00:27:07;11.60;;;8.20;;
75508;SDS011;64214;47.250;11.332;2023-02-07T00:27:19;10.45;;;7.90;;
75508;SDS011;64214;47.250;11.332;2023-02-07T00:27:30;10.80;;;7.88;;
75508;SDS011;64214;47.250;11.332;2023-02-07T00:27:41;10.98;;;7.65;;
75508;SDS011;64214;47.250;11.332;2023-02-07T00:27:52;11.38;;;7.97;;
75508;SDS011;64214;47.250;11.332;2023-02-07T00:28:03;10.88;;;7.47;;
75508;SDS011;64214;47.250;11.332;2023-02-07T00:28:14;11.37;;;7.67;;
75508;SDS011;64214;47.250;11.332;2023-02-07T00:28:25;11.43;;;7.90;;
75508;SDS011;64214;47.250;11.332;2023-02-07T00:28:37;12.13;;;8.15;;
75508;SDS011;64214;47.250;11.332;2023-02-07T00:28:49;11.73;;;8.10;;
75508;SDS011;64214;47.250;11.332;2023-02-07T00:29:01;12.32;;;8.00;;
75508;SDS011;64214;47.250;11.332;2023-02-07T00:29:13;11.65;;;7.60;;
75508;SDS011;64214;47.250;11.332;2023-02-07T00:29:24;12.18;;;7.55;;
75508;SDS011;64214;47.250;11.332;2023-02-07T00:29:35;12.50;;;7.95;;
75508;SDS011;64214;47.250;11.332;2023-02-07T00:29:47;12.60;;;8.02;;
75508;SDS011;64214;47.250;11.332;2023-02-07T00:29:58;12.82;;;8.60;;
75508;SDS011;64214;47.250;11.332;2023-02-07T00:30:09;11.95;;;8.18;;
75508;SDS011;64214;47.250;11.332;2023-02-07T00:30:20;12.00;;;8.52;;
75508;SDS011;64214;47.250;11.332;2023-02-07T00:30:32;12.77;;;8.55;;
75508;SDS011;64214;47.250;11.332;2023-02-07T00:30:43;13.02;;;8.60;;
75508;SDS011;64214;47.250;11.332;2023-02-07T00:31:04;12.48;;;8.45;;
75508;SDS011;64214;47.250;11.332;2023-02-07T00:31:17;13.02;;;8.35;;
75508;SDS011;64214;47.250;11.332;2023-02-07T00:31:31;13.88;;;8.50;;
75508;SDS011;64214;47.250;11.332;2023-02-07T00:31:44;11.57;;;8.15;;
75508;SDS011;64214;47.250;11.332;2023-02-07T00:31:55;10.82;;;7.75;;
75508;SDS011;64214;47.250;11.332;2023-02-07T00:32:06;11.27;;;7.47;;
75508;SDS011;64214;47.250;11.332;2023-02-07T00:32:18;12.25;;;7.65;;
75508;SDS011;64214;47.250;11.332;2023-02-07T00:32:32;11.52;;;7.40;;
75508;SDS011;64214;47.250;11.332;2023-02-07T00:32:44;12.20;;;7.80;;
75508;SDS011;64214;47.250;11.332;2023-02-07T00:32:55;12.02;;;7.72;;
75508;SDS011;64214;47.250;11.332;2023-02-07T00:33:06;11.95;;;7.70;;
75508;SDS011;64214;47.250;11.332;2023-02-07T00:33:17;11.30;;;7.65;;
75508;SDS011;64214;47.250;11.332;2023-02-07T00:33:29;11.65;;;7.80;;
75508;SDS011;64214;47.250;11.332;2023-02-07T00:33:42;11.73;;;7.65;;
75508;SDS011;64214;47.250;11.332;2023-02-07T00:33:56;11.25;;;7.63;;
75508;SDS011;64214;47.250;11.332;2023-02-07T00:34:10;10.77;;;7.40;;
75508;SDS011;64214;47.250;11.332;2023-02-07T00:34:21;11.38;;;7.28;;
75508;SDS011;64214;47.250;11.332;2023-02-07T00:34:32;11.30;;;7.10;;
75508;SDS011;64214;47.250;11.332;2023-02-07T00:34:46;12.02;;;7.50;;
75508;SDS011;64214;47.250;11.332;2023-02-07T00:34:57;12.05;;;7.95;;
75508;SDS011;64214;47.250;11.332;2023-02-07T00:35:08;11.60;;;7.90;;
75508;SDS011;64214;47.250;11.332;2023-02-07T00:35:19;11.45;;;7.75;;
75508;SDS011;64214;47.250;11.332;2023-02-07T00:35:30;10.75;;;7.45;;
75508;SDS011;64214;47.250;11.332;2023-02-07T00:35:42;10.40;;;7.43;;
75508;SDS011;64214;47.250;11.332;2023-02-07T00:36:00;10.80;;;7.38;;
75508;SDS011;64214;47.250;11.332;2023-02-07T00:36:17;11.48;;;7.63;;
75508;SDS011;64214;47.250;11.332;2023-02-07T00:36:31;11.60;;;7.97;;
75508;SDS011;64214;47.250;11.332;2023-02-07T00:36:43;11.65;;;7.80;;
75508;SDS011;64214;47.250;11.332;2023-02-07T00:36:54;11.73;;;7.60;;
75508;SDS011;64214;47.250;11.332;2023-02-07T00:37:05;11.88;;;7.50;;
75508;SDS011;64214;47.250;11.332;2023-02-07T00:37:16;11.77;;;7.70;;
75508;SDS011;64214;47.250;11.332;2023-02-07T00:37:28;11.98;;;7.72;;
75508;SDS011;64214;47.250;11.332;2023-02-07T00:37:39;12.15;;;7.88;;
75508;SDS011;64214;47.250;11.332;2023-02-07T00:37:50;11.82;;;8.00;;
75508;SDS011;64214;47.250;11.332;2023-02-07T00:38:01;11.77;;;8.32;;
75508;SDS011;64214;47.250;11.332;2023-02-07T00:38:12;11.10;;;8.30;;
75508;SDS011;64214;47.250;11.332;2023-02-07T00:38:23;11.32;;;8.45;;
75508;SDS011;64214;47.250;11.332;2023-02-07T00:38:34;10.60;;;7.70;;
75508;SDS011;64214;47.250;11.332;2023-02-07T00:38:46;10.75;;;7.78;;
75508;SDS011;64214;47.250;11.332;2023-02-07T00:38:58;10.52;;;7.70;;
75508;SDS011;64214;47.250;11.332;2023-02-07T00:39:15;11.45;;;7.70;;
75508;SDS011;64214;47.250;11.332;2023-02-07T00:39:27;12.15;;;7.93;;
75508;SDS011;64214;47.250;11.332;2023-02-07T00:39:38;12.45;;;8.18;;
75508;SDS011;64214;47.250;11.332;2023-02-07T00:39:49;12.63;;;8.57;;
75508;SDS011;64214;47.250;11.332;2023-02-07T00:40:00;11.82;;;8.40;;
75508;SDS011;64214;47.250;11.332;2023-02-07T00:40:11;12.00;;;8.23;;
75508;SDS011;64214;47.250;11.332;2023-02-07T00:40:22;11.93;;;7.93;;
75508;SDS011;64214;47.250;11.332;2023-02-07T00:40:33;11.68;;;7.93;;
75508;SDS011;64214;47.250;11.332;2023-02-07T00:40:45;12.32;;;8.02;;
75508;SDS011;64214;47.250;11.332;2023-02-07T00:40:56;11.80;;;8.18;;
75508;SDS011;64214;47.250;11.332;2023-02-07T00:41:08;11.73;;;8.10;;
75508;SDS011;64214;47.250;11.332;2023-02-07T00:41:20;10.95;;;7.75;;
75508;SDS011;64214;47.250;11.332;2023-02-07T00:41:31;11.15;;;7.97;;
75508;SDS011;64214;47.250;11.332;2023-02-07T00:41:44;11.93;;;8.02;;
75508;SDS011;64214;47.250;11.332;2023-02-07T00:41:55;11.25;;;7.90;;
75508;SDS011;64214;47.250;11.332;2023-02-07T00:42:06;10.63;;;7.68;;
75508;SDS011;64214;47.250;11.332;2023-02-07T00:42:18;10.75;;;7.85;;
75508;SDS011;64214;47.250;11.332;2023-02-07T00:42:29;10.68;;;7.55;;
75508;SDS011;64214;47.250;11.332;2023-02-07T00:42:40;11.02;;;7.82;;
75508;SDS011;64214;47.250;11.332;2023-02-07T00:42:52;11.73;;;7.72;;
75508;SDS011;64214;47.250;11.332;2023-02-07T00:43:03;11.55;;;7.97;;
75508;SDS011;64214;47.250;11.332;2023-02-07T00:43:14;11.80;;;7.90;;
75508;SDS011;64214;47.250;11.332;2023-02-07T00:43:25;11.20;;;8.05;;
75508;SDS011;64214;47.250;11.332;2023-02-07T00:43:37;11.52;;;7.88;;
75508;SDS011;64214;47.250;11.332;2023-02-07T00:43:48;11.55;;;7.82;;
75508;SDS011;64214;47.250;11.332;2023-02-07T00:44:02;11.63;;;8.20;;
75508;SDS011;64214;47.250;11.332;2023-02-07T00:44:13;12.77;;;8.15;;
75508;SDS011;64214;47.250;11.332;2023-02-07T00:44:25;12.23;;;7.80;;
75508;SDS011;64214;47.250;11.332;2023-02-07T00:44:36;12.10;;;7.70;;
75508;SDS011;64214;47.250;11.332;2023-02-07T00:44:47;11.23;;;7.80;;
75508;SDS011;64214;47.250;11.332;2023-02-07T00:44:58;11.65;;;8.15;;
75508;SDS011;64214;47.250;11.332;2023-02-07T00:45:09;12.35;;;8.43;;
75508;SDS011;64214;47.250;11.332;2023-02-07T00:45:21;12.95;;;8.38;;
75508;SDS011;64214;47.250;11.332;2023-02-07T00:45:32;12.07;;;8.07;;
75508;SDS011;64214;47.250;11.332;2023-02-07T00:45:43;11.32;;;7.70;;
75508;SDS011;64214;47.250;11.332;2023-02-07T00:45:54;11.43;;;7.75;;
75508;SDS011;64214;47.250;11.332;2023-02-07T00:46:06;12.15;;;7.80;;
75508;SDS011;64214;47.250;11.332;2023-02-07T00:46:17;12.27;;;8.25;;
75508;SDS011;64214;47.250;11.332;2023-02-07T00:46:28;12.18;;;8.07;;
75508;SDS011;64214;47.250;11.332;2023-02-07T00:46:39;12.07;;;7.55;;
75508;SDS011;64214;47.250;11.332;2023-02-07T00:46:51;12.32;;;7.43;;
75508;SDS011;64214;47.250;11.332;2023-02-07T00:47:02;12.07;;;7.47;;
75508;SDS011;64214;47.250;11.332;2023-02-07T00:47:13;12.45;;;8.00;;
75508;SDS011;64214;47.250;11.332;2023-02-07T00:47:24;12.63;;;8.07;;
75508;SDS011;64214;47.250;11.332;2023-02-07T00:47:35;12.52;;;8.32;;
75508;SDS011;64214;47.250;11.332;2023-02-07T00:47:46;12.00;;;7.68;;
75508;SDS011;64214;47.250;11.332;2023-02-07T00:47:58;11.32;;;7.80;;
75508;SDS011;64214;47.250;11.332;2023-02-07T00:48:09;11.20;;;7.88;;
75508;SDS011;64214;47.250;11.332;2023-02-07T00:48:20;11.90;;;8.52;;
75508;SDS011;64214;47.250;11.332;2023-02-07T00:48:33;11.90;;;8.23;;
75508;SDS011;64214;47.250;11.332;2023-02-07T00:48:44;11.13;;;7.68;;
75508;SDS011;64214;47.250;11.332;2023-02-07T00:48:55;11.00;;;7.45;;
75508;SDS011;64214;47.250;11.332;2023-02-07T00:49:07;11.15;;;7.30;;
75508;SDS011;64214;47.250;11.332;2023-02-07T00:49:18;11.55;;;7.57;;
75508;SDS011;64214;47.250;11.332;2023-02-07T00:49:29;12.50;;;7.95;;
75508;SDS011;64214;47.250;11.332;2023-02-07T00:49:41;11.77;;;7.88;;
75508;SDS011;64214;47.250;11.332;2023-02-07T00:49:52;10.90;;;7.93;;
75508;SDS011;64214;47.250;11.332;2023-02-07T00:50:03;10.90;;;7.63;;
75508;SDS011;64214;47.250;11.332;2023-02-07T00:50:15;11.13;;;7.70;;
75508;SDS011;64214;47.250;11.332;2023-02-07T00:50:26;11.18;;;7.45;;
75508;SDS011;64214;47.250;11.332;2023-02-07T00:50:37;11.52;;;7.45;;
75508;SDS011;64214;47.250;11.332;2023-02-07T00:50:48;11.50;;;7.30;;
75508;SDS011;64214;47.250;11.332;2023-02-07T00:51:00;10.98;;;7.30;;
75508;SDS011;64214;47.250;11.332;2023-02-07T00:51:11;12.85;;;7.63;;
75508;SDS011;64214;47.250;11.332;2023-02-07T00:51:23;13.07;;;7.65;;
75508;SDS011;64214;47.250;11.332;2023-02-07T00:51:37;12.65;;;7.80;;
75508;SDS011;64214;47.250;11.332;2023-02-07T00:51:49;13.30;;;8.07;;
75508;SDS011;64214;47.250;11.332;2023-02-07T00:52:00;13.63;;;8.30;;
75508;SDS011;64214;47.250;11.332;2023-02-07T00:52:11;13.93;;;8.40;;
75508;SDS011;64214;47.250;11.332;2023-02-07T00:52:22;13.05;;;8.18;;
75508;SDS011;64214;47.250;11.332;2023-02-07T00:52:33;11.55;;;7.80;;
75508;SDS011;64214;47.250;11.332;2023-02-07T00:52:44;11.95;;;7.72;;
75508;SDS011;64214;47.250;11.332;2023-02-07T00:52:56;11.85;;;8.00;;
75508;SDS011;64214;47.250;11.332;2023-02-07T00:53:07;11.75;;;8.18;;
75508;SDS011;64214;47.250;11.332;2023-02-07T00:53:19;11.88;;;7.97;;
75508;SDS011;64214;47.250;11.332;2023-02-07T00:53:30;12.65;;;8.20;;
75508;SDS011;64214;47.250;11.332;2023-02-07T00:53:41;13.10;;;8.02;;
75508;SDS011;64214;47.250;11.332;2023-02-07T00:53:54;12.23;;;7.88;;
75508;SDS011;64214;47.250;11.332;2023-02-07T00:54:05;12.23;;;7.75;;
75508;SDS011;64214;47.250;11.332;2023-02-07T00:54:16;11.25;;;7.85;;
75508;SDS011;64214;47.250;11.332;2023-02-07T00:54:28;11.63;;;7.78;;
75508;SDS011;64214;47.250;11.332;2023-02-07T00:54:39;10.60;;;7.22;;
75508;SDS011;64214;47.250;11.332;2023-02-07T00:54:50;10.25;;;7.07;;
75508;SDS011;64214;47.250;11.332;2023-02-07T00:55:02;10.95;;;7.32;;
75508;SDS011;64214;47.250;11.332;2023-02-07T00:55:13;12.00;;;7.78;;
75508;SDS011;64214;47.250;11.332;2023-02-07T00:55:24;12.65;;;7.90;;
75508;SDS011;64214;47.250;11.332;2023-02-07T00:55:35;11.85;;;7.72;;
75508;SDS011;64214;47.250;11.332;2023-02-07T00:55:46;10.90;;;7.43;;
75508;SDS011;64214;47.250;11.332;2023-02-07T00:55:58;10.05;;;7.38;;
75508;SDS011;64214;47.250;11.332;2023-02-07T00:56:09;12.13;;;7.78;;
75508;SDS011;64214;47.250;11.332;2023-02-07T00:56:22;12.90;;;8.30;;
75508;SDS011;64214;47.250;11.332;2023-02-07T00:56:34;13.88;;;8.40;;
75508;SDS011;64214;47.250;11.332;2023-02-07T00:56:45;12.52;;;7.85;;
75508;SDS011;64214;47.250;11.332;2023-02-07T00:56:56;12.43;;;7.82;;
75508;SDS011;64214;47.250;11.332;2023-02-07T00:57:07;11.38;;;7.57;;
75508;SDS011;64214;47.250;11.332;2023-02-07T00:57:18;11.73;;;7.40;;
75508;SDS011;64214;47.250;11.332;2023-02-07T00:57:30;11.15;;;7.18;;
75508;SDS011;64214;47.250;11.332;2023-02-07T00:57:41;11.30;;;7.43;;
75508;SDS011;64214;47.250;11.332;2023-02-07T00:57:52;11.75;;;7.70;;
75508;SDS011;64214;47.250;11.332;2023-02-07T00:58:03;12.15;;;7.70;;
75508;SDS011;64214;47.250;11.332;2023-02-07T00:58:14;11.38;;;7.20;;
75508;SDS011;64214;47.250;11.332;2023-02-07T00:58:25;11.65;;;7.55;;
75508;SDS011;64214;47.250;11.332;2023-02-07T00:58:37;11.23;;;7.50;;
75508;SDS011;64214;47.250;11.332;2023-02-07T00:58:48;11.07;;;7.77;;
75508;SDS011;64214;47.250;11.332;2023-02-07T00:58:59;10.18;;;7.43;;
75508;SDS011;64214;47.250;11.332;2023-02-07T00:59:10;10.98;;;7.63;;
75508;SDS011;64214;47.250;11.332;2023-02-07T00:59:21;10.70;;;7.40;;
75508;SDS011;64214;47.250;11.332;2023-02-07T00:59:32;10.93;;;7.63;;
75508;SDS011;64214;47.250;11.332;2023-02-07T00:59:43;10.93;;;7.68;;
75508;SDS011;64214;47.250;11.332;2023-02-07T00:59:55;10.70;;;7.60;;
75508;SDS011;64214;47.250;11.332;2023-02-07T01:00:06;11.85;;;7.63;;
75508;SDS011;64214;47.250;11.332;2023-02-07T01:00:18;12.90;;;7.57;;
75508;SDS011;64214;47.250;11.332;2023-02-07T01:00:30;13.25;;;7.88;;
75508;SDS011;64214;47.250;11.332;2023-02-07T01:00:41;12.02;;;8.00;;
75508;SDS011;64214;47.250;11.332;2023-02-07T01:00:53;11.60;;;7.82;;
75508;SDS011;64214;47.250;11.332;2023-02-07T01:01:04;11.95;;;7.70;;
75508;SDS011;64214;47.250;11.332;2023-02-07T01:01:16;11.85;;;7.65;;
75508;SDS011;64214;47.250;11.332;2023-02-07T01:01:27;12.48;;;7.90;;
75508;SDS011;64214;47.250;11.332;2023-02-07T01:01:40;12.32;;;7.90;;
75508;SDS011;64214;47.250;11.332;2023-02-07T01:01:51;11.80;;;7.50;;
75508;SDS011;64214;47.250;11.332;2023-02-07T01:02:02;11.23;;;7.83;;
75508;SDS011;64214;47.250;11.332;2023-02-07T01:02:13;11.90;;;8.07;;
75508;SDS011;64214;47.250;11.332;2023-02-07T01:02:24;13.57;;;8.02;;
75508;SDS011;64214;47.250;11.332;2023-02-07T01:02:35;13.68;;;7.50;;
75508;SDS011;64214;47.250;11.332;2023-02-07T01:02:46;13.88;;;7.43;;
75508;SDS011;64214;47.250;11.332;2023-02-07T01:02:57;12.45;;;7.70;;
75508;SDS011;64214;47.250;11.332;2023-02-07T01:03:10;12.95;;;7.85;;
75508;SDS011;64214;47.250;11.332;2023-02-07T01:03:21;12.43;;;7.85;;
75508;SDS011;64214;47.250;11.332;2023-02-07T01:03:32;11.55;;;7.40;;
75508;SDS011;64214;47.250;11.332;2023-02-07T01:03:43;10.52;;;7.32;;
75508;SDS011;64214;47.250;11.332;2023-02-07T01:03:55;10.77;;;7.10;;
75508;SDS011;64214;47.250;11.332;2023-02-07T01:04:06;10.87;;;7.03;;
75508;SDS011;64214;47.250;11.332;2023-02-07T01:04:17;11.68;;;7.18;;
75508;SDS011;64214;47.250;11.332;2023-02-07T01:04:28;11.45;;;7.43;;
75508;SDS011;64214;47.250;11.332;2023-02-07T01:04:39;11.55;;;7.60;;
75508;SDS011;64214;47.250;11.332;2023-02-07T01:04:50;12.05;;;7.95;;
75508;SDS011;64214;47.250;11.332;2023-02-07T01:05:01;12.73;;;7.88;;
75508;SDS011;64214;47.250;11.332;2023-02-07T01:05:12;13.85;;;7.82;;
75508;SDS011;64214;47.250;11.332;2023-02-07T01:05:24;13.43;;;7.47;;
75508;SDS011;64214;47.250;11.332;2023-02-07T01:05:35;11.30;;;7.43;;
75508;SDS011;64214;47.250;11.332;2023-02-07T01:05:46;10.70;;;7.10;;
75508;SDS011;64214;47.250;11.332;2023-02-07T01:05:57;10.25;;;7.15;;
75508;SDS011;64214;47.250;11.332;2023-02-07T01:06:10;10.70;;;7.65;;
75508;SDS011;64214;47.250;11.332;2023-02-07T01:06:21;10.73;;;8.05;;
75508;SDS011;64214;47.250;11.332;2023-02-07T01:06:32;10.07;;;7.63;;
75508;SDS011;64214;47.250;11.332;2023-02-07T01:06:45;10.35;;;7.45;;
75508;SDS011;64214;47.250;11.332;2023-02-07T01:06:56;11.13;;;7.80;;
75508;SDS011;64214;47.250;11.332;2023-02-07T01:07:09;11.80;;;7.82;;
75508;SDS011;64214;47.250;11.332;2023-02-07T01:07:20;11.68;;;7.88;;
75508;SDS011;64214;47.250;11.332;2023-02-07T01:07:32;11.75;;;7.68;;
75508;SDS011;64214;47.250;11.332;2023-02-07T01:07:44;11.88;;;7.95;;
75508;SDS011;64214;47.250;11.332;2023-02-07T01:07:57;10.95;;;7.65;;
75508;SDS011;64214;47.250;11.332;2023-02-07T01:08:09;11.25;;;7.85;;